Time;durP1;ratioP1;P1;durP2;ratioP2;P2;SDS_P1;SDS_P2;PMS_P1;PMS_P2;Temp;Humidity;BMP_temperature;BMP_pressure;BME280_temperature;BME280_humidity;BME280_pressure;Samples;Min_cycle;Max_cycle;Signal;HPM_P1;HPM_P2
2022/09/10 00:01:28;;;;;;;3.80;1.60;;;15.70;72.40;;;;;;5046969;28;20446;-72
2022/09/10 00:03:54;;;;;;;1.63;1.17;;;15.70;78.70;;;;;;5044048;28;20202;-72
2022/09/10 00:06:24;;;;;;;3.60;1.53;;;15.80;77.90;;;;;;5043501;28;20551;-72
2022/09/10 00:08:50;;;;;;;1.30;1.20;;;15.80;74.20;;;;;;5039592;28;20469;-72
2022/09/10 00:11:16;;;;;;;1.70;1.30;;;15.80;76.90;;;;;;5038165;28;20460;-72
2022/09/10 00:13:42;;;;;;;3.37;1.60;;;15.80;77.00;;;;;;5039581;28;20447;-72
2022/09/10 00:16:10;;;;;;;3.83;1.60;;;15.80;77.90;;;;;;5054591;28;20663;-72
2022/09/10 00:18:38;;;;;;;3.40;1.37;;;15.80;78.10;;;;;;5044887;28;20200;-71
2022/09/10 00:21:06;;;;;;;1.67;1.30;;;15.80;75.20;;;;;;5047366;28;20403;-72
2022/09/10 00:23:31;;;;;;;5.80;1.50;;;15.80;74.70;;;;;;5045617;28;20608;-72
2022/09/10 00:25:57;;;;;;;4.50;1.60;;;15.80;75.90;;;;;;5045372;28;20960;-72
2022/09/10 00:28:26;;;;;;;2.90;1.50;;;15.80;71.90;;;;;;5045063;28;20188;-72
2022/09/10 00:30:53;;;;;;;4.00;1.37;;;15.80;76.90;;;;;;5046121;28;20177;-72
2022/09/10 00:33:20;;;;;;;2.00;1.40;;;15.80;72.50;;;;;;5045933;28;20435;-72
2022/09/10 00:35:46;;;;;;;5.33;1.40;;;15.80;72.50;;;;;;5039844;28;20911;-72
2022/09/10 00:38:13;;;;;;;4.23;1.47;;;15.80;70.80;;;;;;5047049;28;20519;-72
2022/09/10 00:40:40;;;;;;;5.17;1.53;;;15.80;68.10;;;;;;5045208;28;20544;-72
2022/09/10 00:43:17;;;;;;;4.40;1.50;;;15.80;68.10;;;;;;5037923;28;20506;-72
2022/09/10 00:45:44;;;;;;;3.43;1.27;;;15.80;71.30;;;;;;5034057;28;21004;-72
2022/09/10 00:48:23;;;;;;;2.53;1.50;;;15.90;72.70;;;;;;5045048;28;20554;-72
2022/09/10 00:50:53;;;;;;;2.80;1.20;;;15.40;68.70;;;;;;5046208;28;20507;-72
2022/09/10 00:53:22;;;;;;;4.50;1.37;;;15.90;71.60;;;;;;5048911;28;20424;-72
2022/09/10 00:55:52;;;;;;;3.33;1.47;;;16.00;70.20;;;;;;5048957;28;20971;-72
2022/09/10 00:58:19;;;;;;;4.73;1.47;;;16.00;68.10;;;;;;5050425;28;20407;-72
2022/09/10 01:00:45;;;;;;;3.37;1.20;;;16.00;66.20;;;;;;5048658;28;20961;-72
2022/09/10 01:03:12;;;;;;;1.80;1.20;;;16.00;61.30;;;;;;5050549;28;20458;-72
2022/09/10 01:05:42;;;;;;;2.00;1.47;;;16.00;64.50;;;;;;5040691;28;20197;-72
2022/09/10 01:08:16;;;;;;;2.43;1.60;;;16.00;66.90;;;;;;5049441;28;20726;-72
2022/09/10 01:11:00;;;;;;;4.27;1.37;;;16.10;61.70;;;;;;5044037;28;20451;-72
2022/09/10 01:13:57;;;;;;;6.47;1.70;;;16.10;64.80;;;;;;5043288;28;20424;-72
2022/09/10 01:16:38;;;;;;;2.53;1.20;;;16.10;64.70;;;;;;5049780;28;20454;-72
2022/09/10 01:19:23;;;;;;;1.83;1.23;;;16.10;60.70;;;;;;5050178;28;20427;-72
2022/09/10 01:22:34;;;;;;;3.30;1.40;;;16.00;60.90;;;;;;5045899;28;20427;-72
2022/09/10 01:25:09;;;;;;;1.53;1.27;;;16.10;59.20;;;;;;5048391;28;20435;-72
2022/09/10 01:27:34;;;;;;;2.03;1.40;;;16.10;58.30;;;;;;5046544;28;20464;-72
2022/09/10 01:30:20;;;;;;;5.87;1.20;;;16.10;57.90;;;;;;5038507;28;20427;-72
2022/09/10 01:32:49;;;;;;;2.83;1.30;;;16.20;60.40;;;;;;5045975;28;20189;-72
2022/09/10 01:35:18;;;;;;;3.00;1.20;;;16.20;57.70;;;;;;5039971;28;20484;-72
2022/09/10 01:37:53;;;;;;;3.73;1.37;;;16.20;60.10;;;;;;5048164;28;20492;-72
2022/09/10 01:40:23;;;;;;;5.57;1.43;;;16.20;61.10;;;;;;5046014;28;20434;-72
2022/09/10 01:42:49;;;;;;;2.07;1.50;;;16.20;56.70;;;;;;5037380;28;20460;-72
2022/09/10 01:45:15;;;;;;;2.80;1.50;;;16.10;48.10;;;;;;5042961;28;20450;-72
2022/09/10 01:47:46;;;;;;;5.07;1.20;;;16.10;61.30;;;;;;5047095;28;20178;-72
2022/09/10 01:50:27;;;;;;;4.20;1.67;;;16.10;54.90;;;;;;5045440;28;20456;-72
2022/09/10 01:53:29;;;;;;;3.23;1.43;;;16.20;56.10;;;;;;5047071;28;20436;-72
2022/09/10 01:56:12;;;;;;;2.57;1.33;;;16.20;54.80;;;;;;5048683;28;20445;-72
2022/09/10 01:58:40;;;;;;;4.20;1.30;;;16.20;57.70;;;;;;5041950;28;20441;-72
2022/09/10 02:01:49;;;;;;;3.30;1.50;;;16.20;59.80;;;;;;5042807;28;20454;-71
2022/09/10 02:04:18;;;;;;;2.93;1.23;;;16.20;58.70;;;;;;5022315;28;20440;-72
2022/09/10 02:06:48;;;;;;;1.57;1.30;;;16.20;54.70;;;;;;5045494;28;20447;-72
2022/09/10 02:09:15;;;;;;;3.10;1.20;;;16.20;55.30;;;;;;5048813;28;20573;-72
2022/09/10 02:11:55;;;;;;;5.00;1.37;;;16.20;58.80;;;;;;5043656;28;20451;-72
2022/09/10 02:14:21;;;;;;;3.63;1.53;;;16.20;62.10;;;;;;5040602;28;20434;-72
2022/09/10 02:16:53;;;;;;;2.50;1.30;;;16.30;59.80;;;;;;5046199;28;20466;-72
2022/09/10 02:19:19;;;;;;;3.50;1.70;;;16.30;65.20;;;;;;5050773;28;20855;-72
2022/09/10 02:21:45;;;;;;;2.77;1.53;;;16.40;57.80;;;;;;5046647;28;20538;-72
2022/09/10 02:24:12;;;;;;;1.97;1.37;;;16.40;56.10;;;;;;5048353;28;20189;-72
2022/09/10 02:26:41;;;;;;;2.40;1.53;;;16.40;56.40;;;;;;5047231;28;21028;-72
2022/09/10 02:29:08;;;;;;;5.83;1.93;;;16.40;56.10;;;;;;5045480;28;20447;-72
2022/09/10 02:31:34;;;;;;;5.93;1.70;;;16.40;54.90;;;;;;5046422;28;20436;-72
2022/09/10 02:34:02;;;;;;;4.63;1.30;;;16.40;58.30;;;;;;5044998;28;20432;-71
2022/09/10 02:36:27;;;;;;;4.70;1.60;;;16.50;57.20;;;;;;5044510;28;20952;-72
2022/09/10 02:38:55;;;;;;;4.00;1.37;;;16.60;61.40;;;;;;5046911;28;20411;-72
2022/09/10 02:41:24;;;;;;;2.70;1.53;;;16.60;53.40;;;;;;5041425;28;20528;-72
2022/09/10 02:43:52;;;;;;;7.93;1.40;;;16.60;43.50;;;;;;5042200;28;20521;-72
2022/09/10 02:46:18;;;;;;;4.13;1.90;;;16.50;43.50;;;;;;5055682;28;20443;-72
2022/09/10 02:48:44;;;;;;;3.40;1.50;;;16.50;50.50;;;;;;5048798;28;20427;-72
2022/09/10 02:51:10;;;;;;;2.63;1.50;;;16.40;51.50;;;;;;5048312;28;20239;-72
2022/09/10 02:53:36;;;;;;;5.43;1.50;;;16.40;57.40;;;;;;5046057;28;20554;-72
2022/09/10 02:56:02;;;;;;;9.93;2.30;;;16.40;54.70;;;;;;5048310;28;20442;-72
2022/09/10 02:58:32;;;;;;;2.50;1.47;;;16.40;56.00;;;;;;5045832;28;20185;-72
2022/09/10 03:01:10;;;;;;;5.87;1.77;;;16.40;57.60;;;;;;5046474;28;20616;-72
2022/09/10 03:03:36;;;;;;;1.73;1.53;;;16.40;51.80;;;;;;5043560;28;20491;-72
2022/09/10 03:06:03;;;;;;;3.43;1.50;;;16.30;55.40;;;;;;5046965;28;20435;-72
2022/09/10 03:08:29;;;;;;;3.07;2.00;;;16.20;59.40;;;;;;5044097;28;20857;-72
2022/09/10 03:10:56;;;;;;;6.40;1.53;;;16.30;59.90;;;;;;5048690;28;20874;-72
2022/09/10 03:13:22;;;;;;;4.30;1.60;;;16.20;60.00;;;;;;5038964;28;20443;-72
2022/09/10 03:15:47;;;;;;;4.33;1.77;;;16.30;64.70;;;;;;5049231;28;20894;-72
2022/09/10 03:18:14;;;;;;;4.23;1.63;;;16.30;59.20;;;;;;5046878;28;20197;-72
2022/09/10 03:20:40;;;;;;;3.23;1.30;;;16.30;61.20;;;;;;5046586;28;20177;-72
2022/09/10 03:23:06;;;;;;;3.70;1.40;;;16.20;60.10;;;;;;5045776;28;20474;-72
2022/09/10 03:25:32;;;;;;;2.00;1.50;;;16.20;61.10;;;;;;5046498;28;20432;-72
2022/09/10 03:27:58;;;;;;;5.53;1.77;;;16.10;60.30;;;;;;5046690;28;20459;-72
2022/09/10 03:30:24;;;;;;;5.23;1.77;;;16.10;60.70;;;;;;5043863;28;20173;-71
2022/09/10 03:32:49;;;;;;;6.20;1.60;;;16.10;62.70;;;;;;5046609;28;20431;-72
2022/09/10 03:35:15;;;;;;;4.10;1.67;;;16.20;63.70;;;;;;5046765;28;20201;-71
2022/09/10 03:37:42;;;;;;;7.33;1.87;;;16.20;65.80;;;;;;5047998;28;20223;-72
2022/09/10 03:40:08;;;;;;;3.60;1.40;;;16.20;61.60;;;;;;5044514;28;20201;-72
2022/09/10 03:42:34;;;;;;;3.40;1.30;;;16.20;60.80;;;;;;5042509;28;20487;-71
2022/09/10 03:44:59;;;;;;;2.67;1.50;;;16.10;63.60;;;;;;5043679;28;20481;-71
2022/09/10 03:47:24;;;;;;;5.80;1.80;;;16.10;66.60;;;;;;5046496;28;20172;-72
2022/09/10 03:49:50;;;;;;;7.27;2.00;;;16.10;67.10;;;;;;5046338;28;20181;-72
2022/09/10 03:52:16;;;;;;;4.43;1.63;;;16.10;71.20;;;;;;5046265;28;20181;-71
2022/09/10 03:54:42;;;;;;;3.27;1.60;;;16.10;70.30;;;;;;5037923;28;20181;-72
2022/09/10 03:57:07;;;;;;;3.20;1.77;;;16.10;72.00;;;;;;5046075;28;20844;-72
2022/09/10 03:59:33;;;;;;;5.00;1.83;;;16.10;72.40;;;;;;5044872;28;20189;-72
2022/09/10 04:01:59;;;;;;;4.37;1.50;;;16.20;68.40;;;;;;5042008;28;20181;-72
2022/09/10 04:04:25;;;;;;;5.70;1.97;;;16.30;72.30;;;;;;5046130;28;20427;-72
2022/09/10 04:06:52;;;;;;;4.23;1.60;;;16.30;67.40;;;;;;5045547;28;20250;-72
2022/09/10 04:09:18;;;;;;;5.73;1.70;;;16.30;67.70;;;;;;5039302;28;20428;-72
2022/09/10 04:11:44;;;;;;;3.70;1.63;;;16.30;66.30;;;;;;5041117;28;20519;-72
2022/09/10 04:14:09;;;;;;;4.47;1.63;;;16.30;64.90;;;;;;5049600;28;20528;-72
2022/09/10 04:16:34;;;;;;;3.97;1.70;;;16.10;71.70;;;;;;5045714;28;20213;-72
2022/09/10 04:19:00;;;;;;;6.20;1.80;;;15.90;79.60;;;;;;5048337;28;20250;-72
2022/09/10 04:21:26;;;;;;;4.37;1.50;;;15.80;85.10;;;;;;5044776;28;21018;-73
2022/09/10 04:23:55;;;;;;;2.10;1.67;;;16.30;91.20;;;;;;5047517;28;20193;-72
2022/09/10 04:26:21;;;;;;;2.47;1.43;;;15.80;95.60;;;;;;5046593;28;20652;-72
2022/09/10 04:28:47;;;;;;;3.00;1.80;;;15.80;93.40;;;;;;5044194;28;21045;-72
2022/09/10 04:31:13;;;;;;;2.53;1.87;;;15.80;95.30;;;;;;5050977;28;20443;-72
2022/09/10 04:33:39;;;;;;;3.03;1.67;;;15.70;96.60;;;;;;5049757;28;20286;-72
2022/09/10 04:36:05;;;;;;;5.93;1.97;;;15.70;97.00;;;;;;5052298;28;20218;-73
2022/09/10 04:38:31;;;;;;;3.73;2.10;;;15.60;97.70;;;;;;5047021;28;20181;-72
2022/09/10 04:40:59;;;;;;;4.33;1.80;;;15.70;99.90;;;;;;5048114;28;20435;-72
2022/09/10 04:43:25;;;;;;;4.93;1.80;;;15.80;99.90;;;;;;5042773;28;20570;-72
2022/09/10 04:45:51;;;;;;;4.40;1.70;;;15.80;99.90;;;;;;5048672;28;20997;-72
2022/09/10 04:48:17;;;;;;;6.60;1.67;;;15.80;99.40;;;;;;5051410;28;20512;-72
2022/09/10 04:50:43;;;;;;;3.00;1.60;;;15.70;96.80;;;;;;5047035;28;20436;-72
2022/09/10 04:53:08;;;;;;;3.93;1.70;;;15.70;97.40;;;;;;5044991;28;20177;-72
2022/09/10 04:55:38;;;;;;;5.20;1.73;;;15.70;99.60;;;;;;5045823;28;20221;-72
2022/09/10 04:58:04;;;;;;;5.47;2.00;;;15.60;99.20;;;;;;5043473;28;20715;-72
2022/09/10 05:00:31;;;;;;;4.60;1.57;;;15.60;98.90;;;;;;5049438;28;20501;-72
2022/09/10 05:02:56;;;;;;;3.90;1.60;;;15.70;99.90;;;;;;5051124;28;20455;-72
2022/09/10 05:05:22;;;;;;;3.90;1.60;;;15.70;99.90;;;;;;5041896;28;20457;-72
2022/09/10 05:07:47;;;;;;;7.17;1.80;;;15.60;99.90;;;;;;5051238;28;20169;-72
2022/09/10 05:10:14;;;;;;;2.73;1.67;;;15.70;99.90;;;;;;5043825;28;20177;-72
2022/09/10 05:12:39;;;;;;;5.40;1.80;;;15.70;99.90;;;;;;5047678;28;20173;-72
2022/09/10 05:15:06;;;;;;;7.00;1.97;;;15.70;99.90;;;;;;5049753;28;20453;-72
2022/09/10 05:17:32;;;;;;;7.60;1.70;;;15.80;99.90;;;;;;5048309;28;20218;-72
2022/09/10 05:19:58;;;;;;;5.20;1.70;;;15.80;99.90;;;;;;5048766;28;20408;-72
2022/09/10 05:22:23;;;;;;;2.70;1.60;;;15.80;99.90;;;;;;5050318;28;20455;-72
2022/09/10 05:24:49;;;;;;;1.90;1.80;;;15.70;98.40;;;;;;5033233;28;20182;-72
2022/09/10 05:27:15;;;;;;;4.60;2.10;;;15.60;99.90;;;;;;5036563;28;20682;-72
2022/09/10 05:29:41;;;;;;;4.97;1.80;;;15.70;99.90;;;;;;5039892;28;20530;-72
2022/09/10 05:32:08;;;;;;;4.07;1.60;;;15.70;99.90;;;;;;5047558;28;20412;-72
2022/09/10 05:34:34;;;;;;;2.87;1.70;;;15.70;99.90;;;;;;5044596;28;20489;-72
2022/09/10 05:36:59;;;;;;;3.33;2.10;;;15.70;99.90;;;;;;5045607;28;20457;-72
2022/09/10 05:39:25;;;;;;;2.33;1.73;;;15.70;99.90;;;;;;5047277;28;20173;-72
2022/09/10 05:41:51;;;;;;;4.87;1.83;;;15.80;99.90;;;;;;5046307;28;20174;-72
2022/09/10 05:44:17;;;;;;;9.03;2.40;;;15.90;99.90;;;;;;5043322;28;20615;-72
2022/09/10 05:46:43;;;;;;;6.20;2.00;;;15.90;99.90;;;;;;5046468;28;20451;-72
2022/09/10 05:49:09;;;;;;;2.60;1.87;;;15.90;99.90;;;;;;5041623;28;20177;-72
2022/09/10 05:51:35;;;;;;;3.30;1.90;;;15.90;99.90;;;;;;5047175;28;20422;-72
2022/09/10 05:54:00;;;;;;;3.93;1.80;;;15.90;99.90;;;;;;5042098;28;20204;-72
2022/09/10 05:56:26;;;;;;;6.20;2.33;;;15.90;99.90;;;;;;5047550;28;20483;-72
2022/09/10 05:58:52;;;;;;;3.07;1.80;;;15.90;99.90;;;;;;5047687;28;20283;-72
2022/09/10 06:01:18;;;;;;;7.17;1.93;;;15.80;99.90;;;;;;5045174;28;20634;-72
2022/09/10 06:03:44;;;;;;;2.33;1.67;;;15.80;99.90;;;;;;5048610;28;21020;-73
2022/09/10 06:06:09;;;;;;;4.33;1.70;;;15.70;99.90;;;;;;5049782;28;20455;-72
2022/09/10 06:08:35;;;;;;;4.60;1.93;;;15.70;99.90;;;;;;5043462;28;20173;-72
2022/09/10 06:11:04;;;;;;;8.20;1.90;;;15.80;99.90;;;;;;5047713;28;20307;-73
2022/09/10 06:13:31;;;;;;;3.30;1.70;;;15.80;99.90;;;;;;5044482;28;20185;-73
2022/09/10 06:15:57;;;;;;;2.60;1.53;;;15.80;99.90;;;;;;5058163;28;20846;-72
2022/09/10 06:18:23;;;;;;;11.30;2.10;;;15.80;99.90;;;;;;5046750;28;20510;-73
2022/09/10 06:20:48;;;;;;;3.67;1.40;;;15.80;99.90;;;;;;5048082;28;20602;-73
2022/09/10 06:23:18;;;;;;;4.50;1.70;;;15.90;99.90;;;;;;5047581;28;20197;-72
2022/09/10 06:25:43;;;;;;;5.30;2.10;;;15.90;99.90;;;;;;5044156;28;20225;-72
2022/09/10 06:28:11;;;;;;;3.83;1.60;;;15.90;99.90;;;;;;5037228;28;20468;-75
2022/09/10 06:30:37;;;;;;;2.70;1.70;;;15.90;99.90;;;;;;5038440;28;20186;-76
2022/09/10 06:33:02;;;;;;;5.00;1.80;;;16.00;99.90;;;;;;5041154;28;20431;-76
2022/09/10 06:35:28;;;;;;;3.77;1.80;;;16.00;99.90;;;;;;5032295;28;20217;-76
2022/09/10 06:37:55;;;;;;;6.00;2.23;;;16.10;99.90;;;;;;5046465;28;20185;-78
2022/09/10 06:40:20;;;;;;;6.00;2.40;;;16.10;99.90;;;;;;5035910;28;20508;-76
2022/09/10 06:42:47;;;;;;;5.50;1.50;;;16.10;99.90;;;;;;5043717;28;20463;-77
2022/09/10 06:45:12;;;;;;;4.47;1.63;;;16.00;98.10;;;;;;5049161;28;20724;-77
2022/09/10 06:47:38;;;;;;;3.27;1.60;;;16.10;97.00;;;;;;5048947;28;20436;-74
2022/09/10 06:50:04;;;;;;;3.23;1.47;;;16.20;92.40;;;;;;5041396;28;20268;-76
2022/09/10 06:52:29;;;;;;;4.23;1.73;;;16.20;93.80;;;;;;5044182;28;20562;-77
2022/09/10 06:54:55;;;;;;;7.20;1.93;;;16.20;90.00;;;;;;5045831;28;20532;-77
2022/09/10 06:57:25;;;;;;;5.40;1.73;;;16.20;93.00;;;;;;5044006;28;20268;-77
2022/09/10 06:59:50;;;;;;;8.80;1.47;;;16.20;96.10;;;;;;5040374;28;20188;-77
2022/09/10 07:02:16;;;;;;;2.73;1.47;;;16.20;94.30;;;;;;5048395;28;20412;-77
2022/09/10 07:04:41;;;;;;;2.20;1.63;;;16.30;91.40;;;;;;5046302;28;20371;-74
2022/09/10 07:07:08;;;;;;;2.40;1.70;;;16.20;90.80;;;;;;5047626;28;20181;-77
2022/09/10 07:09:33;;;;;;;4.77;1.80;;;16.10;92.50;;;;;;5040331;28;20254;-74
2022/09/10 07:11:59;;;;;;;4.40;1.80;;;16.10;93.30;;;;;;5039363;28;20467;-74
2022/09/10 07:14:25;;;;;;;4.20;1.53;;;16.10;94.40;;;;;;5039744;28;20264;-74
2022/09/10 07:16:52;;;;;;;2.80;1.83;;;16.10;92.90;;;;;;5042951;28;20205;-74
2022/09/10 07:19:17;;;;;;;3.10;1.60;;;15.90;90.60;;;;;;5044497;28;20601;-74
2022/09/10 07:21:43;;;;;;;3.43;1.80;;;16.00;91.20;;;;;;5042445;28;20614;-74
2022/09/10 07:24:11;;;;;;;6.53;1.93;;;16.00;92.80;;;;;;5044161;28;20840;-74
2022/09/10 07:26:37;;;;;;;11.00;1.80;;;16.00;95.20;;;;;;5043512;28;20283;-74
2022/09/10 07:29:03;;;;;;;3.80;1.83;;;16.00;92.10;;;;;;5039526;28;20455;-73
2022/09/10 07:31:33;;;;;;;9.50;2.00;;;16.10;89.20;;;;;;5043912;28;20419;-74
2022/09/10 07:34:01;;;;;;;7.13;2.07;;;16.20;96.20;;;;;;5042912;28;20514;-74
2022/09/10 07:36:27;;;;;;;4.60;2.47;;;16.30;91.40;;;;;;5046326;28;20836;-73
2022/09/10 07:38:54;;;;;;;3.77;2.10;;;16.30;87.30;;;;;;5043548;28;20467;-74
2022/09/10 07:41:20;;;;;;;4.33;1.80;;;16.30;87.20;;;;;;5045289;28;20915;-74
2022/09/10 07:43:46;;;;;;;8.33;2.10;;;16.40;82.30;;;;;;5034357;28;20522;-74
2022/09/10 07:46:21;;;;;;;3.30;1.80;;;16.50;85.90;;;;;;5043561;28;20447;-74
2022/09/10 07:48:51;;;;;;;3.77;1.73;;;16.50;79.10;;;;;;5054463;28;20585;-74
2022/09/10 07:51:18;;;;;;;2.70;1.50;;;16.50;77.20;;;;;;5043697;28;20959;-74
2022/09/10 07:53:44;;;;;;;4.27;1.93;;;16.50;64.90;;;;;;5051877;28;20403;-74
2022/09/10 07:56:10;;;;;;;5.83;1.70;;;16.80;77.20;;;;;;5046607;28;20456;-75
2022/09/10 07:58:37;;;;;;;4.30;1.77;;;16.90;60.00;;;;;;5040628;28;20436;-73
2022/09/10 08:01:07;;;;;;;6.30;1.87;;;16.90;57.80;;;;;;5038022;28;20439;-73
2022/09/10 08:03:33;;;;;;;6.97;1.50;;;17.00;51.40;;;;;;5039479;28;20612;-73
2022/09/10 08:06:00;;;;;;;2.70;1.67;;;17.10;44.00;;;;;;5045704;28;20441;-73
2022/09/10 08:08:31;;;;;;;4.07;1.50;;;17.20;44.20;;;;;;5037708;28;20201;-74
2022/09/10 08:11:03;;;;;;;5.00;1.50;;;17.20;46.00;;;;;;5039334;28;20455;-74
2022/09/10 08:13:29;;;;;;;4.20;1.93;;;17.20;44.20;;;;;;5035803;28;20416;-73
2022/09/10 08:15:56;;;;;;;6.00;2.23;;;17.20;44.00;;;;;;5043577;28;20774;-74
2022/09/10 08:18:22;;;;;;;6.73;2.00;;;17.20;44.10;;;;;;5047826;28;20176;-73
2022/09/10 08:20:53;;;;;;;3.53;2.10;;;17.20;44.00;;;;;;5044941;28;20429;-74
2022/09/10 08:23:19;;;;;;;6.33;1.80;;;17.30;44.10;;;;;;5041183;28;20252;-74
2022/09/10 08:25:50;;;;;;;6.97;2.00;;;17.30;44.20;;;;;;5046476;28;20475;-75
2022/09/10 08:28:18;;;;;;;4.73;2.20;;;17.50;44.40;;;;;;5047322;28;20242;-75
2022/09/10 08:31:15;;;;;;;6.43;2.40;;;17.60;44.30;;;;;;5043514;28;20810;-80
2022/09/10 08:33:40;;;;;;;4.70;2.00;;;17.90;44.60;;;;;;5055529;28;20420;-74
2022/09/10 08:36:13;;;;;;;4.23;2.10;;;18.00;32.30;;;;;;5047115;28;20825;-74
2022/09/10 08:38:40;;;;;;;6.00;2.03;;;18.20;37.40;;;;;;5037078;28;20322;-73
2022/09/10 08:41:40;;;;;;;9.40;2.10;;;18.50;31.60;;;;;;5036889;28;20435;-73
2022/09/10 08:44:08;;;;;;;4.83;2.30;;;18.50;19.20;;;;;;5039370;28;20509;-73
2022/09/10 08:46:50;;;;;;;6.20;2.50;;;18.50;20.10;;;;;;5056107;28;20434;-73
2022/09/10 08:49:42;;;;;;;3.40;1.90;;;18.70;13.00;;;;;;5067695;28;20860;-73
2022/09/10 08:52:29;;;;;;;4.87;2.00;;;18.90;8.00;;;;;;5067733;28;20514;-73
2022/09/10 08:55:01;;;;;;;8.40;2.80;;;19.20;12.90;;;;;;5028637;28;20412;-73
2022/09/10 08:57:55;;;;;;;7.57;2.70;;;19.60;4.50;;;;;;5029522;28;20411;-73
2022/09/10 09:00:24;;;;;;;6.03;2.17;;;19.90;1.00;;;;;;5029109;28;20401;-74
2022/09/10 09:03:05;;;;;;;4.77;2.30;;;20.20;1.00;;;;;;5046030;28;20451;-74
2022/09/10 09:05:44;;;;;;;8.60;2.30;;;20.40;1.00;;;;;;5049102;28;20459;-73
2022/09/10 09:08:12;;;;;;;7.13;2.20;;;20.60;1.00;;;;;;5039996;28;20423;-73
2022/09/10 09:10:48;;;;;;;6.20;2.37;;;20.70;1.00;;;;;;5028867;28;20428;-74
2022/09/10 09:13:46;;;;;;;4.30;2.07;;;21.10;1.00;;;;;;5034313;28;20412;-74
2022/09/10 09:16:44;;;;;;;4.67;2.00;;;21.40;1.00;;;;;;5059954;28;20484;-73
2022/09/10 09:19:33;;;;;;;7.17;2.10;;;21.80;1.00;;;;;;5045075;28;20411;-73
2022/09/10 09:22:17;;;;;;;9.63;2.20;;;21.60;1.00;;;;;;5042762;28;20492;-73
2022/09/10 09:24:57;;;;;;;5.80;2.00;;;20.90;1.00;;;;;;5031468;28;20424;-74
2022/09/10 09:27:27;;;;;;;6.10;1.80;;;20.30;1.00;;;;;;5032812;28;20428;-74
2022/09/10 09:30:00;;;;;;;4.87;1.80;;;20.20;1.00;;;;;;5032734;28;20408;-73
2022/09/10 09:32:29;;;;;;;4.27;2.40;;;20.30;1.00;;;;;;5032362;28;20409;-73
2022/09/10 09:35:15;;;;;;;4.87;2.20;;;21.00;1.00;;;;;;5032278;28;20463;-74
2022/09/10 09:37:44;;;;;;;4.20;1.90;;;22.30;1.00;;;;;;5042964;28;20431;-74
2022/09/10 09:40:11;;;;;;;5.40;1.73;;;23.10;1.00;;;;;;5051665;28;20775;-74
2022/09/10 09:42:56;;;;;;;5.17;2.17;;;23.20;1.00;;;;;;5052100;28;20474;-74
2022/09/10 09:45:44;;;;;;;6.40;1.73;;;23.30;1.00;;;;;;5055012;28;20438;-74
2022/09/10 09:48:15;;;;;;;4.67;1.93;;;22.90;1.00;;;;;;5045926;28;20416;-73
2022/09/10 09:50:44;;;;;;;6.93;2.00;;;22.30;1.00;;;;;;5050589;28;20446;-74
2022/09/10 09:53:25;;;;;;;6.50;2.27;;;22.30;1.00;;;;;;5051147;28;20404;-74
2022/09/10 09:55:57;;;;;;;4.20;1.87;;;21.90;1.00;;;;;;5051737;28;20483;-73
2022/09/10 09:58:25;;;;;;;6.00;2.10;;;22.20;1.00;;;;;;5051642;28;20449;-74
2022/09/10 10:01:03;;;;;;;5.87;1.90;;;22.40;1.00;;;;;;5052184;28;20407;-73
2022/09/10 10:03:38;;;;;;;4.63;2.00;;;23.10;1.00;;;;;;5050149;28;20802;-74
2022/09/10 10:06:07;;;;;;;4.97;1.67;;;22.20;1.00;;;;;;5052096;28;20415;-73
2022/09/10 10:08:41;;;;;;;4.53;2.00;;;22.30;1.00;;;;;;5049055;28;20424;-74
2022/09/10 10:11:08;;;;;;;3.90;1.60;;;21.90;1.00;;;;;;5051990;28;20395;-74
2022/09/10 10:13:44;;;;;;;6.20;2.20;;;21.40;1.00;;;;;;5050305;28;20669;-74
2022/09/10 10:16:20;;;;;;;5.27;2.17;;;21.00;1.00;;;;;;5053002;28;20427;-73
2022/09/10 10:18:45;;;;;;;4.63;2.10;;;21.00;1.00;;;;;;5050424;28;20439;-74
2022/09/10 10:21:22;;;;;;;6.73;1.97;;;21.10;1.00;;;;;;5052018;28;21039;-74
2022/09/10 10:23:48;;;;;;;6.23;2.33;;;21.80;1.00;;;;;;5052354;28;20283;-74
2022/09/10 10:26:19;;;;;;;10.90;2.10;;;23.20;1.00;;;;;;5041484;28;20779;-75
2022/09/10 10:28:52;;;;;;;6.80;2.33;;;24.40;1.00;;;;;;5045805;28;20485;-74
2022/09/10 10:31:18;;;;;;;5.40;1.87;;;24.10;1.00;;;;;;5049690;28;20422;-73
2022/09/10 10:33:58;;;;;;;4.63;1.90;;;23.50;1.00;;;;;;5050150;28;20449;-73
2022/09/10 10:37:07;;;;;;;4.60;2.10;;;23.10;1.00;;;;;;5051460;28;20431;-73
2022/09/10 10:40:25;;;;;;;12.30;2.70;;;22.90;1.00;;;;;;5049174;28;20431;-73
2022/09/10 10:43:17;;;;;;;5.10;1.93;;;22.30;1.00;;;;;;5021671;28;20556;-73
2022/09/10 10:46:05;;;;;;;5.33;2.00;;;21.90;1.00;;;;;;5058098;28;20502;-73
2022/09/10 10:48:55;;;;;;;6.07;2.00;;;21.40;1.00;;;;;;5069248;28;20796;-73
2022/09/10 10:51:50;;;;;;;5.13;2.00;;;21.10;1.00;;;;;;5055965;28;20704;-73
2022/09/10 10:54:40;;;;;;;5.50;2.30;;;21.00;1.00;;;;;;5049231;28;20415;-73
2022/09/10 10:57:27;;;;;;;4.50;2.10;;;21.00;1.00;;;;;;5031157;28;20415;-73
2022/09/10 11:00:01;;;;;;;5.03;2.17;;;21.10;1.00;;;;;;5029975;28;20420;-73
2022/09/10 11:02:42;;;;;;;7.23;2.63;;;21.40;1.00;;;;;;5030626;28;20425;-74
2022/09/10 11:05:26;;;;;;;5.07;2.30;;;21.70;1.00;;;;;;5030657;28;20815;-73
2022/09/10 11:07:55;;;;;;;6.10;2.20;;;22.10;1.00;;;;;;5031167;28;20401;-73
2022/09/10 11:10:20;;;;;;;10.23;2.00;;;22.40;1.00;;;;;;5029978;28;20848;-73
2022/09/10 11:13:05;;;;;;;3.63;1.83;;;22.40;1.00;;;;;;5033585;28;20487;-73
2022/09/10 11:15:38;;;;;;;4.50;1.90;;;22.50;1.00;;;;;;5054732;28;20208;-73
2022/09/10 11:18:18;;;;;;;4.33;1.80;;;22.60;1.00;;;;;;5044551;28;20813;-73
2022/09/10 11:21:16;;;;;;;5.00;1.73;;;21.90;1.00;;;;;;5049149;28;21025;-74
2022/09/10 11:24:14;;;;;;;5.63;1.90;;;21.50;1.00;;;;;;5043906;28;20645;-73
2022/09/10 11:26:46;;;;;;;10.43;2.10;;;20.80;1.00;;;;;;5046788;28;20439;-73
2022/09/10 11:29:41;;;;;;;4.27;2.00;;;20.60;1.00;;;;;;5050365;28;20685;-73
2022/09/10 11:32:15;;;;;;;4.60;1.97;;;20.30;1.00;;;;;;5044036;28;20419;-73
2022/09/10 11:35:04;;;;;;;6.70;2.53;;;20.20;1.00;;;;;;5037393;28;20424;-73
2022/09/10 11:37:51;;;;;;;3.50;2.00;;;19.80;1.00;;;;;;5050241;28;20404;-73
2022/09/10 11:40:38;;;;;;;7.07;2.27;;;19.60;1.00;;;;;;5048998;28;20404;-73
2022/09/10 11:43:12;;;;;;;5.13;2.63;;;19.40;1.00;;;;;;5038937;28;20662;-74
2022/09/10 11:45:51;;;;;;;5.70;2.63;;;19.10;1.20;;;;;;5059768;28;20426;-74
2022/09/10 11:48:38;;;;;;;5.63;2.10;;;19.00;18.20;;;;;;5069584;28;20422;-74
2022/09/10 11:51:29;;;;;;;6.80;2.40;;;19.00;13.20;;;;;;5066719;28;20414;-74
2022/09/10 11:53:55;;;;;;;7.27;2.20;;;19.00;1.30;;;;;;5049501;28;20424;-74
2022/09/10 11:56:42;;;;;;;5.70;2.20;;;19.10;1.40;;;;;;5049751;28;20439;-74
2022/09/10 11:59:25;;;;;;;5.20;2.20;;;19.20;11.30;;;;;;5051049;28;20902;-74
2022/09/10 12:02:14;;;;;;;5.77;2.73;;;19.20;1.00;;;;;;5050065;28;20423;-74
2022/09/10 12:05:04;;;;;;;9.00;2.60;;;19.20;10.40;;;;;;5039442;28;20420;-73
2022/09/10 12:07:39;;;;;;;3.87;2.10;;;19.40;1.00;;;;;;5031027;28;20491;-74
2022/09/10 12:10:42;;;;;;;6.70;2.30;;;19.70;1.60;;;;;;5031199;28;20937;-74
2022/09/10 12:13:12;;;;;;;3.70;2.00;;;20.20;1.00;;;;;;5044440;28;20422;-74
2022/09/10 12:15:38;;;;;;;5.23;2.30;;;20.20;1.00;;;;;;5057775;28;20486;-73
2022/09/10 12:18:17;;;;;;;8.00;2.60;;;20.30;1.00;;;;;;5069267;28;20485;-74
2022/09/10 12:20:56;;;;;;;6.37;2.57;;;20.40;1.00;;;;;;5071003;28;20207;-75
2022/09/10 12:23:31;;;;;;;5.63;2.73;;;20.40;1.00;;;;;;5054083;28;20485;-76
2022/09/10 12:26:12;;;;;;;4.80;2.30;;;20.40;1.00;;;;;;5050713;28;20510;-74
2022/09/10 12:28:40;;;;;;;9.40;2.10;;;20.60;1.00;;;;;;5046687;28;20447;-74
2022/09/10 12:31:07;;;;;;;5.90;2.60;;;20.70;1.00;;;;;;5049326;28;20461;-74
2022/09/10 12:33:34;;;;;;;4.63;2.00;;;20.50;1.00;;;;;;5050381;28;20411;-74
2022/09/10 12:35:59;;;;;;;4.20;2.27;;;20.40;1.00;;;;;;5050721;28;20458;-74
2022/09/10 12:38:44;;;;;;;6.00;2.50;;;20.70;1.00;;;;;;5048795;28;20755;-75
2022/09/10 12:41:35;;;;;;;4.57;2.03;;;21.10;1.00;;;;;;5050667;28;20169;-74
2022/09/10 12:44:03;;;;;;;6.27;1.90;;;21.30;1.00;;;;;;5054080;28;20545;-74
2022/09/10 12:46:30;;;;;;;4.70;2.13;;;21.30;1.00;;;;;;5060549;28;20438;-75
2022/09/10 12:48:55;;;;;;;8.60;2.43;;;21.10;1.00;;;;;;5072267;28;20464;-75
2022/09/10 12:51:46;;;;;;;4.73;2.20;;;20.80;1.00;;;;;;5073099;28;20418;-74
2022/09/10 12:54:47;;;;;;;4.23;2.03;;;20.70;1.00;;;;;;5074738;28;20175;-73
2022/09/10 12:57:34;;;;;;;6.60;1.90;;;21.00;1.00;;;;;;5053995;28;20427;-74
2022/09/10 13:00:21;;;;;;;4.73;1.90;;;21.30;1.00;;;;;;5036014;28;20507;-74
2022/09/10 13:02:50;;;;;;;4.87;2.17;;;21.50;1.00;;;;;;5053889;28;20447;-75
2022/09/10 13:05:18;;;;;;;6.17;2.10;;;21.40;1.00;;;;;;5052659;28;20436;-74
2022/09/10 13:07:48;;;;;;;4.57;2.20;;;21.30;1.00;;;;;;5054058;28;20838;-74
2022/09/10 13:10:20;;;;;;;6.50;2.20;;;21.30;1.00;;;;;;5054411;28;20438;-74
2022/09/10 13:12:51;;;;;;;10.30;2.20;;;21.30;1.00;;;;;;5052755;28;20416;-75
2022/09/10 13:15:20;;;;;;;4.03;2.10;;;21.20;1.00;;;;;;5060396;28;20453;-74